createdAt,value
2018-11-13T00:05:01.898Z,83695.00
2018-11-13T00:10:06.735Z,83701.00
2018-11-13T00:15:10.949Z,83707.00
2018-11-13T00:20:16.926Z,83707.00
2018-11-13T00:25:21.177Z,83712.00
2018-11-13T00:30:25.337Z,83713.00
2018-11-13T00:35:28.957Z,83711.00
2018-11-13T00:40:32.795Z,83711.00
2018-11-13T00:45:36.668Z,83712.00
2018-11-13T00:50:40.443Z,83710.00
2018-11-13T00:55:44.301Z,83711.00
2018-11-13T01:00:48.302Z,83704.00
2018-11-13T01:05:52.928Z,83702.00
2018-11-13T01:10:56.345Z,83697.00
2018-11-13T01:16:00.197Z,83697.00
2018-11-13T01:21:04.059Z,83696.00
2018-11-13T01:26:07.920Z,83687.00
2018-11-13T01:31:12.027Z,83687.00
2018-11-13T01:36:15.838Z,83697.00
2018-11-13T01:41:19.922Z,83704.00
2018-11-13T01:46:24.023Z,83703.00
2018-11-13T01:51:27.841Z,83699.00
2018-11-13T01:56:31.718Z,83686.00
2018-11-13T02:01:35.822Z,83689.00
2018-11-13T02:06:39.666Z,83687.00
2018-11-13T02:11:43.495Z,83683.00
2018-11-13T02:16:47.349Z,83683.00
2018-11-13T02:21:51.197Z,83688.00
2018-11-13T02:26:55.281Z,83686.00
2018-11-13T02:31:59.110Z,83685.00
2018-11-13T02:37:02.935Z,83688.00
2018-11-13T02:42:06.812Z,83690.00
2018-11-13T02:47:10.901Z,83690.00
2018-11-13T02:52:14.749Z,83693.00
2018-11-13T02:57:18.709Z,83690.00
2018-11-13T03:02:22.562Z,83692.00
2018-11-13T03:07:26.907Z,83687.00
2018-11-13T03:12:30.739Z,83687.00
2018-11-13T03:17:34.607Z,83688.00
2018-11-13T03:22:38.637Z,83682.00
2018-11-13T03:27:42.720Z,83685.00
2018-11-13T03:32:46.960Z,83685.00
2018-11-13T03:37:51.083Z,83691.00
2018-11-13T03:42:55.166Z,83686.00
2018-11-13T03:47:58.978Z,83685.00
2018-11-13T03:53:02.790Z,83686.00
2018-11-13T03:58:07.455Z,83684.00
2018-11-13T04:03:11.363Z,83688.00
2018-11-13T04:08:15.214Z,83684.00
2018-11-13T04:13:19.054Z,83689.00
2018-11-13T04:18:22.912Z,83688.00
2018-11-13T04:23:26.713Z,83689.00
2018-11-13T04:28:30.789Z,83692.00
2018-11-13T04:33:34.609Z,83692.00
2018-11-13T04:38:38.404Z,83696.00
2018-11-13T04:43:42.446Z,83695.00
2018-11-13T04:48:46.279Z,83698.00
2018-11-13T04:53:50.093Z,83697.00
2018-11-13T04:58:53.897Z,83698.00
2018-11-13T05:03:57.731Z,83692.00
2018-11-13T05:09:01.774Z,83694.00
2018-11-13T05:14:05.758Z,83685.00
2018-11-13T05:19:09.556Z,83691.00
2018-11-13T05:24:13.361Z,83687.00
2018-11-13T05:29:17.421Z,83680.00
2018-11-13T05:34:21.268Z,83689.00
2018-11-13T05:39:25.090Z,83691.00
2018-11-13T05:44:28.893Z,83695.00
2018-11-13T05:49:32.942Z,83694.00
2018-11-13T05:54:36.753Z,83701.00
2018-11-13T05:59:40.817Z,83697.00
2018-11-13T06:04:44.830Z,83697.00
2018-11-13T06:09:48.873Z,83694.00
2018-11-13T06:14:52.844Z,83697.00
2018-11-13T06:19:56.854Z,83701.00
2018-11-13T06:25:01.693Z,83705.00
2018-11-13T06:30:09.686Z,83704.00
2018-11-13T06:35:13.468Z,83692.00
2018-11-13T06:40:17.417Z,83708.00
2018-11-13T06:45:22.950Z,83709.00
2018-11-13T06:50:26.741Z,83712.00
2018-11-13T06:55:32.885Z,83707.00
2018-11-13T07:00:36.701Z,83710.00
2018-11-13T07:05:40.506Z,83708.00
2018-11-13T07:10:44.418Z,83703.00
2018-11-13T07:15:48.381Z,83682.00
2018-11-13T07:20:52.449Z,83691.00
2018-11-13T07:25:56.257Z,83688.00
2018-11-13T07:31:00.077Z,83676.00
2018-11-13T07:36:03.861Z,83673.00
2018-11-13T07:41:07.860Z,83671.00
2018-11-13T07:46:11.541Z,83682.00
2018-11-13T07:51:15.429Z,83702.00
2018-11-13T07:56:19.157Z,83720.00
2018-11-13T08:01:22.984Z,83739.00
2018-11-13T08:06:27.062Z,83757.00
2018-11-13T08:11:31.049Z,83772.00
2018-11-13T08:16:35.092Z,83786.00
2018-11-13T08:21:38.875Z,83804.00
2018-11-13T08:26:42.730Z,83828.00
2018-11-13T08:31:46.546Z,83847.00
2018-11-13T08:36:50.338Z,83874.00
2018-11-13T08:41:54.125Z,83889.00
2018-11-13T08:46:57.928Z,83877.00
2018-11-13T08:52:01.757Z,83893.00
2018-11-13T08:57:05.897Z,83911.00
2018-11-13T09:02:09.705Z,83922.00
2018-11-13T09:07:13.518Z,83926.00
2018-11-13T09:12:17.376Z,83900.00
2018-11-13T09:17:21.425Z,83919.00
2018-11-13T09:22:25.221Z,83908.00
2018-11-13T09:27:29.253Z,83930.00
2018-11-13T09:32:33.313Z,83923.00
2018-11-13T09:37:37.517Z,83912.00
2018-11-13T09:42:41.733Z,83919.00
2018-11-13T09:47:45.625Z,83926.00
2018-11-13T09:52:50.698Z,83928.00
2018-11-13T09:57:54.481Z,83944.00
2018-11-13T10:03:00.421Z,83959.00
2018-11-13T10:08:03.489Z,83957.00
2018-11-13T10:13:07.567Z,83956.00
2018-11-13T10:18:11.463Z,83962.00
2018-11-13T10:23:15.156Z,83996.00
2018-11-13T10:28:19.043Z,84060.00
2018-11-13T10:33:23.093Z,84340.00
2018-11-13T10:38:26.893Z,84201.00
2018-11-13T10:43:30.821Z,84106.00
2018-11-13T10:48:34.617Z,84068.00
2018-11-13T10:53:38.672Z,84048.00
2018-11-13T10:58:42.453Z,84027.00
2018-11-13T11:03:51.870Z,84020.00
2018-11-13T11:08:55.685Z,84005.00
2018-11-13T11:13:59.863Z,83989.00
2018-11-13T11:19:03.619Z,83964.00
2018-11-13T11:24:07.709Z,83946.00
2018-11-13T11:29:11.408Z,83938.00
2018-11-13T11:34:15.434Z,83943.00
2018-11-13T11:39:19.322Z,83933.00
2018-11-13T11:44:23.398Z,83935.00
2018-11-13T11:49:27.132Z,83948.00
2018-11-13T11:54:30.954Z,83956.00
2018-11-13T11:59:34.749Z,83963.00
2018-11-13T12:04:38.789Z,84014.00
2018-11-13T12:09:42.597Z,84017.00
2018-11-13T12:14:46.397Z,84005.00
2018-11-13T12:19:50.481Z,83994.00
2018-11-13T12:24:54.653Z,83981.00
2018-11-13T12:29:58.456Z,83986.00
2018-11-13T12:35:02.245Z,83996.00
2018-11-13T12:40:07.401Z,83971.00
2018-11-13T12:45:11.677Z,83972.00
2018-11-13T12:50:16.938Z,83983.00
2018-11-13T12:55:23.069Z,83993.00
2018-11-13T13:00:26.905Z,83985.00
2018-11-13T13:05:30.717Z,83981.00
2018-11-13T13:10:34.788Z,83993.00
2018-11-13T13:15:38.902Z,83977.00
2018-11-13T13:20:42.713Z,83981.00
2018-11-13T13:25:46.569Z,83980.00
2018-11-13T13:30:50.374Z,83975.00
2018-11-13T13:35:58.790Z,83983.00
2018-11-13T13:41:03.515Z,83983.00
2018-11-13T13:46:08.049Z,84003.00
2018-11-13T13:51:11.881Z,84006.00
2018-11-13T13:56:15.697Z,83994.00
2018-11-13T14:01:19.766Z,83992.00
2018-11-13T14:06:23.592Z,83984.00
2018-11-13T14:11:27.418Z,83988.00
2018-11-13T14:16:31.258Z,84000.00
2018-11-13T14:21:35.462Z,84011.00
2018-11-13T14:26:39.273Z,84001.00
2018-11-13T14:31:43.067Z,83990.00
2018-11-13T14:36:47.164Z,83976.00
2018-11-13T14:41:51.262Z,83946.00
2018-11-13T14:46:55.073Z,83926.00
2018-11-13T14:51:58.869Z,83916.00
2018-11-13T14:57:02.946Z,83901.00
2018-11-13T15:02:07.006Z,83885.00
2018-11-13T15:07:10.829Z,83876.00
2018-11-13T15:12:14.874Z,83862.00
2018-11-13T15:17:18.925Z,83855.00
2018-11-13T15:22:22.824Z,83857.00
2018-11-13T15:27:26.800Z,83859.00
2018-11-13T15:32:30.601Z,83856.00
2018-11-13T15:37:34.453Z,83854.00
2018-11-13T15:42:39.385Z,83853.00
2018-11-13T15:47:43.992Z,83833.00
2018-11-13T15:52:47.833Z,83812.00
2018-11-13T15:57:51.894Z,83798.00
2018-11-13T16:02:57.202Z,83783.00
2018-11-13T16:08:02.197Z,83786.00
2018-11-13T16:13:06.309Z,83780.00
2018-11-13T16:18:11.619Z,83778.00
2018-11-13T16:23:15.404Z,83776.00
2018-11-13T16:28:19.450Z,83775.00
2018-11-13T16:33:23.289Z,83761.00
2018-11-13T16:38:27.524Z,83737.00
2018-11-13T16:43:31.233Z,83710.00
2018-11-13T16:48:35.309Z,83681.00
2018-11-13T16:53:44.802Z,83660.00
2018-11-13T16:58:48.562Z,83642.00
2018-11-13T17:03:52.507Z,83634.00
2018-11-13T17:08:56.340Z,83617.00
2018-11-13T17:14:00.385Z,83611.00
2018-11-13T17:19:04.426Z,83597.00
2018-11-13T17:24:08.281Z,83590.00
2018-11-13T17:29:12.145Z,83580.00
2018-11-13T17:34:16.224Z,83559.00
2018-11-13T17:39:20.042Z,83540.00
2018-11-13T17:44:23.970Z,83524.00
2018-11-13T17:49:27.802Z,83520.00
2018-11-13T17:54:31.650Z,83516.00
2018-11-13T17:59:35.487Z,83513.00
2018-11-13T18:04:39.521Z,83500.00
2018-11-13T18:09:43.358Z,83502.00
2018-11-13T18:14:48.025Z,83498.00
2018-11-13T18:19:51.813Z,83490.00
2018-11-13T18:24:55.688Z,83477.00
2018-11-13T18:29:59.498Z,83468.00
2018-11-13T18:35:03.658Z,83444.00
2018-11-13T18:40:09.586Z,83428.00
2018-11-13T18:45:16.139Z,83427.00
2018-11-13T18:50:21.718Z,83425.00
2018-11-13T18:55:25.565Z,83426.00
2018-11-13T19:00:31.435Z,83425.00
2018-11-13T19:05:35.287Z,83375.00
2018-11-13T19:10:40.553Z,83424.00
2018-11-13T19:15:47.968Z,83421.00
2018-11-13T19:20:51.801Z,83412.00
2018-11-13T19:25:55.610Z,83413.00
2018-11-13T19:30:59.660Z,83405.00
2018-11-13T19:36:03.605Z,83415.00
2018-11-13T19:41:07.357Z,83415.00
2018-11-13T19:46:11.177Z,83410.00
2018-11-13T19:51:15.254Z,83405.00
2018-11-13T19:56:19.067Z,83401.00
2018-11-13T20:01:23.135Z,83401.00
2018-11-13T20:06:26.956Z,83397.00
2018-11-13T20:11:31.065Z,83395.00
2018-11-13T20:16:34.987Z,83388.00
2018-11-13T20:21:39.148Z,83384.00
2018-11-13T20:26:42.881Z,83379.00
2018-11-13T20:31:47.003Z,83377.00
2018-11-13T20:36:51.080Z,83371.00
2018-11-13T20:41:54.890Z,83369.00
2018-11-13T20:46:58.708Z,83363.00
2018-11-13T20:52:02.534Z,83364.00
2018-11-13T20:57:06.887Z,83361.00
2018-11-13T21:02:10.766Z,83358.00
2018-11-13T21:07:14.546Z,83355.00
2018-11-13T21:12:18.365Z,83350.00
2018-11-13T21:17:22.461Z,83347.00
2018-11-13T21:22:26.358Z,83346.00
2018-11-13T21:27:30.485Z,83341.00
2018-11-13T21:32:34.261Z,83337.00
2018-11-13T21:37:38.457Z,83329.00
2018-11-13T21:42:42.978Z,83327.00
2018-11-13T21:47:46.827Z,83325.00
2018-11-13T21:52:50.714Z,83325.00
2018-11-13T21:57:54.549Z,83329.00
2018-11-13T22:02:59.691Z,83323.00
2018-11-13T22:08:03.576Z,83315.00
2018-11-13T22:13:07.585Z,83315.00
2018-11-13T22:18:11.393Z,83309.00
2018-11-13T22:23:15.310Z,83302.00
2018-11-13T22:28:19.168Z,83292.00
2018-11-13T22:33:23.135Z,83287.00
2018-11-13T22:38:26.973Z,83279.00
2018-11-13T22:43:30.865Z,83280.00
2018-11-13T22:48:34.940Z,83282.00
2018-11-13T22:53:39.606Z,83281.00
2018-11-13T22:58:43.450Z,83281.00
2018-11-13T23:03:47.276Z,83279.00
2018-11-13T23:08:51.221Z,83281.00
2018-11-13T23:13:55.346Z,83287.00
2018-11-13T23:18:59.165Z,83296.00
2018-11-13T23:24:03.059Z,83292.00
2018-11-13T23:29:07.022Z,83291.00
2018-11-13T23:34:10.829Z,83296.00
2018-11-13T23:39:14.656Z,83286.00
2018-11-13T23:44:18.481Z,83273.00
2018-11-13T23:49:22.307Z,83253.00
2018-11-13T23:54:26.353Z,83226.00
2018-11-13T23:59:30.170Z,83199.00
